Accueil
METAR-TAF:

METAR-TAF

Aéroports :

Aéroport de Baie-Comeau

Baie-Comeau, Québec, Canada

latitude: 49-08N, longitude: 068-12W, altitude: 21 m

Observation

Le bulletin a été fait il y a 54 minutes, à 00:00 UTC
Vent 9 kt de est/nord-est
Température 9°C
Humidité 71%
Pression 1013 hPa
Visibilité: 14.5 km
Ciel couvert à une hauteur de 12000 ft

METAR: CYBC 240000Z AUTO 07009KT 9SM OVC120 09/04 A2991 RMK SLP132

Heure: 20:54 (00:54 UTC)

Prévision

Le bulletin a été fait il y a 5 heures et 16 minutes, à 19:38 UTC
Prévision valable du 23 à 20 UTC au 24 à 08 UTC
Vent 8 kt de est
Visibilité: 10 km
Quelques nuages à une hauteur de 15000 ft
A partir de 24 à 0600 UTC
Vent 12 kt de est/nord-est
Visibilité: 10 km
Nuages fragmentés à une hauteur de 6000 ft
Nuages fragmentés à une hauteur de 16000 ft

TAF: CYBC 231938Z 2320/2408 10008KT P6SM FEW150 FM240600 07012KT P6SM BKN060 BKN160 RMK FCST BASED ON AUTO OBS. NXT FCST BY 240200Z

Observations et prévisions météorologiques de plus de 4000 aéroports (messages METAR et TAF).

Les stations disponibles sont représentées par des disques jaunes et rouges sur la carte.

Passer la souris dessus pour voir le nom de la station.

Cliquer dessus pour voir les observations et prévisions météorologiques.

Pour changer de carte: cliquez sur les boutons verts avec une croix noire pour zoomer, sur le bouton vert avec un tiret pour effectuer un zoom arrière, ou sur les flèches vertes pour les cartes adjacentes.


METAR-TAF: